Time;durP1;ratioP1;P1;durP2;ratioP2;P2;SDS_P1;SDS_P2;PMS_P1;PMS_P2;Temp;Humidity;BMP_temperature;BMP_pressure;BME280_temperature;BME280_humidity;BME280_pressure;Samples;Min_cycle;Max_cycle;Signal;HPM_P1;HPM_P2
2022/07/24 00:01:35;;;;;;;12.10;9.93;;;17.70;71.90;;;;;;5049329;28;20451;-66
2022/07/24 00:04:01;;;;;;;12.52;9.43;;;17.70;71.90;;;;;;5037120;28;20057;-67
2022/07/24 00:06:27;;;;;;;13.25;8.82;;;17.70;71.20;;;;;;5046928;28;20021;-67
2022/07/24 00:08:53;;;;;;;10.13;8.82;;;17.60;71.00;;;;;;5043352;28;20556;-67
2022/07/24 00:11:18;;;;;;;12.43;8.75;;;17.60;71.10;;;;;;5043725;28;20041;-67
2022/07/24 00:13:44;;;;;;;11.32;8.85;;;17.60;71.10;;;;;;5050494;28;20025;-67
2022/07/24 00:16:09;;;;;;;11.05;8.82;;;17.50;71.40;;;;;;5035501;28;20083;-67
2022/07/24 00:18:35;;;;;;;11.98;8.82;;;17.50;71.30;;;;;;5044066;28;20467;-66
2022/07/24 00:21:01;;;;;;;13.25;8.07;;;17.50;71.20;;;;;;5042211;28;20018;-66
2022/07/24 00:23:27;;;;;;;10.77;7.57;;;17.40;71.20;;;;;;5046367;28;20021;-69
2022/07/24 00:25:53;;;;;;;9.00;7.75;;;17.40;71.40;;;;;;5034768;28;20100;-67
2022/07/24 00:28:20;;;;;;;9.15;7.60;;;17.40;71.20;;;;;;5045957;28;20067;-67
2022/07/24 00:30:45;;;;;;;14.05;8.00;;;17.30;71.10;;;;;;5039272;28;20483;-68
2022/07/24 00:33:11;;;;;;;11.02;8.68;;;17.20;71.30;;;;;;5039239;28;20042;-67
2022/07/24 00:35:37;;;;;;;10.55;8.73;;;17.30;71.60;;;;;;5046228;28;20032;-67
2022/07/24 00:38:03;;;;;;;13.27;9.82;;;17.30;71.70;;;;;;5016104;28;20474;-67
2022/07/24 00:40:29;;;;;;;10.95;9.23;;;17.30;71.80;;;;;;5045255;28;20096;-67
2022/07/24 00:42:56;;;;;;;11.43;9.00;;;17.20;72.20;;;;;;5041156;28;20021;-67
2022/07/24 00:45:21;;;;;;;13.57;10.05;;;17.20;72.60;;;;;;5019900;28;20037;-66
2022/07/24 00:47:47;;;;;;;12.75;10.50;;;17.20;72.90;;;;;;5046753;28;20025;-67
2022/07/24 00:50:13;;;;;;;13.75;9.98;;;17.20;72.90;;;;;;5034698;28;20055;-67
2022/07/24 00:52:38;;;;;;;10.50;8.98;;;17.10;73.20;;;;;;5045590;28;20038;-68
2022/07/24 00:55:05;;;;;;;12.52;8.80;;;17.10;72.70;;;;;;5027750;28;20025;-67
2022/07/24 00:57:31;;;;;;;12.07;8.85;;;17.10;72.70;;;;;;5039529;28;20026;-68
2022/07/24 00:59:57;;;;;;;15.00;9.02;;;17.00;72.80;;;;;;5051099;28;20025;-68
2022/07/24 01:02:23;;;;;;;10.60;9.50;;;17.00;73.00;;;;;;5039835;28;20128;-68
2022/07/24 01:04:50;;;;;;;11.25;9.23;;;17.00;73.10;;;;;;5046266;28;20482;-68
2022/07/24 01:07:16;;;;;;;10.35;9.05;;;17.00;73.40;;;;;;5046108;28;20429;-68
2022/07/24 01:09:43;;;;;;;11.05;9.10;;;16.90;73.80;;;;;;5038772;28;20472;-66
2022/07/24 01:12:08;;;;;;;11.98;9.73;;;17.00;73.70;;;;;;5051227;28;20025;-67
2022/07/24 01:14:34;;;;;;;15.05;9.90;;;17.00;73.90;;;;;;5041284;28;20024;-67
2022/07/24 01:17:00;;;;;;;12.05;9.38;;;17.00;73.90;;;;;;5044126;28;20037;-67
2022/07/24 01:19:26;;;;;;;13.20;10.27;;;17.00;73.60;;;;;;5047972;28;20029;-65
2022/07/24 01:21:54;;;;;;;10.85;9.45;;;16.90;73.80;;;;;;5038275;28;20022;-67
2022/07/24 01:24:20;;;;;;;15.50;10.52;;;16.90;74.00;;;;;;5049749;28;20108;-67
2022/07/24 01:26:46;;;;;;;12.27;10.60;;;16.80;74.20;;;;;;5024813;28;20021;-67
2022/07/24 01:29:12;;;;;;;13.00;11.60;;;16.80;74.50;;;;;;5041871;28;20029;-67
2022/07/24 01:31:38;;;;;;;13.35;11.95;;;16.70;74.90;;;;;;5049694;28;20033;-67
2022/07/24 01:34:04;;;;;;;15.52;12.40;;;16.70;75.20;;;;;;5019766;28;20040;-68
2022/07/24 01:36:30;;;;;;;13.63;11.82;;;16.70;75.30;;;;;;5030435;28;20025;-68
2022/07/24 01:38:56;;;;;;;15.73;12.15;;;16.70;75.60;;;;;;5042989;28;20044;-67
2022/07/24 01:41:21;;;;;;;17.08;12.05;;;16.70;75.50;;;;;;5041332;28;20510;-67
2022/07/24 01:43:47;;;;;;;17.25;12.60;;;16.60;75.50;;;;;;5050318;28;20028;-67
2022/07/24 01:46:12;;;;;;;15.68;11.05;;;16.50;75.80;;;;;;5037947;28;20360;-66
2022/07/24 01:48:43;;;;;;;12.57;10.70;;;16.50;75.90;;;;;;5045878;28;20048;-67
2022/07/24 01:51:09;;;;;;;13.00;11.15;;;16.50;76.00;;;;;;5045210;28;20036;-67
2022/07/24 01:53:35;;;;;;;13.43;11.93;;;16.40;75.90;;;;;;5038778;28;20065;-67
2022/07/24 01:56:01;;;;;;;13.75;11.57;;;16.50;75.90;;;;;;5050231;28;20029;-67
2022/07/24 01:58:27;;;;;;;12.70;10.98;;;16.30;76.00;;;;;;5038555;28;20019;-67
2022/07/24 02:00:52;;;;;;;12.10;10.52;;;16.30;76.10;;;;;;5044657;28;20101;-67
2022/07/24 02:03:19;;;;;;;12.48;10.90;;;16.30;76.20;;;;;;5045193;28;20104;-68
2022/07/24 02:05:44;;;;;;;12.25;10.95;;;16.30;76.00;;;;;;5037236;28;20052;-68
2022/07/24 02:08:10;;;;;;;11.38;10.18;;;16.20;76.10;;;;;;5049525;28;20549;-67
2022/07/24 02:10:36;;;;;;;12.07;10.43;;;16.20;76.20;;;;;;5022886;28;20525;-67
2022/07/24 02:13:01;;;;;;;14.40;10.48;;;16.20;76.10;;;;;;5042968;28;20037;-67
2022/07/24 02:15:27;;;;;;;11.75;9.98;;;16.10;76.10;;;;;;5047262;28;20091;-67
2022/07/24 02:17:58;;;;;;;14.25;11.38;;;16.10;76.00;;;;;;5036151;28;20017;-67
2022/07/24 02:20:24;;;;;;;11.20;10.10;;;16.00;76.10;;;;;;5048394;28;20392;-67
2022/07/24 02:22:50;;;;;;;12.13;10.70;;;16.00;76.30;;;;;;5042121;28;20032;-67
2022/07/24 02:25:15;;;;;;;11.75;9.63;;;16.00;76.00;;;;;;5040647;28;20032;-67
2022/07/24 02:27:42;;;;;;;11.23;10.10;;;16.10;76.10;;;;;;5048446;28;20542;-67
2022/07/24 02:30:11;;;;;;;12.40;10.55;;;16.00;75.90;;;;;;5042317;28;20017;-67
2022/07/24 02:32:37;;;;;;;13.93;10.35;;;16.00;75.80;;;;;;5052969;28;20025;-67
2022/07/24 02:35:03;;;;;;;11.38;9.40;;;16.00;76.10;;;;;;5043300;28;20029;-67
2022/07/24 02:37:29;;;;;;;12.07;10.25;;;16.00;75.80;;;;;;5020218;28;20462;-67
2022/07/24 02:39:54;;;;;;;11.63;9.93;;;15.90;75.80;;;;;;5049692;28;20049;-68
2022/07/24 02:42:20;;;;;;;11.13;9.98;;;15.90;75.90;;;;;;5038002;28;20021;-67
2022/07/24 02:44:45;;;;;;;10.98;9.80;;;15.80;76.20;;;;;;5044913;28;20112;-68
2022/07/24 02:47:11;;;;;;;10.88;9.73;;;15.70;76.30;;;;;;5044214;28;20440;-67
2022/07/24 02:49:37;;;;;;;10.68;8.95;;;15.70;76.50;;;;;;5037682;28;20025;-67
2022/07/24 02:52:03;;;;;;;10.68;9.55;;;15.60;76.70;;;;;;5049349;28;20033;-68
2022/07/24 02:54:29;;;;;;;11.35;10.15;;;15.60;76.60;;;;;;5038959;28;20021;-68
2022/07/24 02:56:54;;;;;;;11.65;10.18;;;15.50;76.80;;;;;;5043008;28;20493;-68
2022/07/24 02:59:20;;;;;;;12.00;9.45;;;15.50;76.90;;;;;;5027187;28;20025;-67
2022/07/24 03:01:45;;;;;;;10.77;9.65;;;15.50;77.00;;;;;;5035962;28;20018;-67
2022/07/24 03:04:11;;;;;;;12.38;9.27;;;15.40;77.10;;;;;;5019819;28;20020;-68
2022/07/24 03:06:37;;;;;;;14.15;10.43;;;15.50;77.00;;;;;;5045366;28;20041;-67
2022/07/24 03:09:03;;;;;;;13.75;10.50;;;15.40;77.10;;;;;;5042602;28;20074;-68
2022/07/24 03:11:29;;;;;;;13.82;10.32;;;15.40;77.10;;;;;;5038107;28;20506;-68
2022/07/24 03:13:55;;;;;;;11.07;9.98;;;15.40;77.00;;;;;;5048979;28;20056;-68
2022/07/24 03:16:20;;;;;;;11.50;9.88;;;15.40;77.00;;;;;;5036865;28;20053;-68
2022/07/24 03:18:48;;;;;;;12.05;9.65;;;15.40;77.00;;;;;;5026230;28;20021;-68
2022/07/24 03:21:17;;;;;;;11.90;10.13;;;15.40;76.80;;;;;;5040320;28;20025;-68
2022/07/24 03:23:43;;;;;;;11.35;10.02;;;15.40;77.00;;;;;;5048612;28;20103;-68
2022/07/24 03:26:09;;;;;;;11.32;10.10;;;15.50;76.60;;;;;;5036565;28;20057;-68
2022/07/24 03:28:35;;;;;;;12.95;10.30;;;15.40;76.70;;;;;;5044849;28;20052;-68
2022/07/24 03:31:00;;;;;;;40.13;26.85;;;15.40;76.90;;;;;;5042363;28;20025;-68
2022/07/24 03:33:27;;;;;;;22.88;16.27;;;15.40;76.60;;;;;;5038468;28;20036;-68
2022/07/24 03:35:53;;;;;;;388.65;217.80;;;15.40;76.40;;;;;;5048774;28;20033;-68
2022/07/24 03:38:19;;;;;;;11.25;8.88;;;15.50;76.20;;;;;;5035777;28;20017;-68
2022/07/24 03:40:44;;;;;;;12.40;10.23;;;15.50;75.80;;;;;;5044416;28;20025;-68
2022/07/24 03:43:10;;;;;;;19.20;12.27;;;15.50;75.80;;;;;;5043252;28;20506;-68
2022/07/24 03:45:36;;;;;;;13.23;9.25;;;15.40;76.00;;;;;;5019054;28;20411;-67
2022/07/24 03:48:02;;;;;;;10.50;9.27;;;15.50;75.70;;;;;;5047516;28;20098;-68
2022/07/24 03:50:28;;;;;;;10.20;9.20;;;15.50;75.60;;;;;;5037657;28;20036;-68
2022/07/24 03:52:54;;;;;;;14.30;10.75;;;15.60;75.40;;;;;;5042225;28;20033;-67
2022/07/24 03:55:19;;;;;;;22.40;14.27;;;16.00;74.80;;;;;;5044297;28;20114;-68
2022/07/24 03:57:45;;;;;;;25.10;14.88;;;16.90;71.50;;;;;;5034388;28;20270;-67
2022/07/24 04:00:11;;;;;;;16.45;10.85;;;17.60;68.20;;;;;;5035005;28;20028;-67
2022/07/24 04:02:37;;;;;;;11.40;7.88;;;18.50;66.40;;;;;;5044456;28;20175;-68
2022/07/24 04:05:03;;;;;;;15.57;8.90;;;19.00;63.10;;;;;;5042012;28;20538;-66
2022/07/24 04:07:29;;;;;;;8.82;6.90;;;19.50;62.30;;;;;;5036404;28;20036;-66
2022/07/24 04:09:54;;;;;;;7.95;6.32;;;20.50;59.40;;;;;;5047698;28;20152;-67
2022/07/24 04:12:20;;;;;;;9.65;6.88;;;21.00;57.00;;;;;;5036177;28;20017;-67
2022/07/24 04:14:46;;;;;;;8.60;7.15;;;21.80;53.80;;;;;;5042935;28;20482;-67
2022/07/24 04:17:11;;;;;;;12.68;6.60;;;21.50;54.40;;;;;;5039251;28;20772;-67
2022/07/24 04:19:37;;;;;;;6.90;6.10;;;22.40;52.40;;;;;;5046582;28;20013;-69
2022/07/24 04:22:03;;;;;;;8.35;5.95;;;22.50;51.70;;;;;;5034836;28;20483;-68
2022/07/24 04:24:28;;;;;;;6.82;5.80;;;23.20;50.10;;;;;;5045187;28;20248;-67
2022/07/24 04:26:54;;;;;;;8.25;5.97;;;23.60;48.40;;;;;;5039775;28;20033;-67
2022/07/24 04:29:20;;;;;;;6.60;5.40;;;24.50;45.90;;;;;;5037621;28;20033;-67
2022/07/24 04:31:45;;;;;;;8.70;6.20;;;24.80;45.70;;;;;;5048868;28;20075;-67
2022/07/24 04:34:11;;;;;;;8.43;5.95;;;25.40;43.60;;;;;;5018331;28;20029;-68
2022/07/24 04:36:36;;;;;;;6.13;5.53;;;25.30;43.40;;;;;;5044108;28;20044;-68
2022/07/24 04:39:03;;;;;;;6.47;5.88;;;25.60;43.40;;;;;;5040751;28;20491;-68
2022/07/24 04:41:29;;;;;;;6.53;5.20;;;26.40;41.30;;;;;;5037054;28;20025;-67
2022/07/24 04:43:55;;;;;;;6.78;4.60;;;26.90;40.80;;;;;;5047463;28;20514;-67
2022/07/24 04:46:20;;;;;;;6.63;4.88;;;28.00;38.50;;;;;;5035878;28;20033;-68
2022/07/24 04:48:46;;;;;;;7.03;5.07;;;28.50;37.70;;;;;;5042013;28;20029;-68
2022/07/24 04:51:11;;;;;;;6.60;5.18;;;29.40;35.90;;;;;;5042965;28;20040;-68
2022/07/24 04:53:37;;;;;;;5.78;5.20;;;30.10;34.50;;;;;;5035608;28;20025;-67
2022/07/24 04:56:03;;;;;;;6.07;4.72;;;30.10;34.00;;;;;;5047550;28;20033;-68
2022/07/24 04:58:29;;;;;;;11.23;7.78;;;30.20;34.10;;;;;;5036378;28;20029;-67
2022/07/24 05:00:54;;;;;;;12.98;9.00;;;30.30;34.10;;;;;;5041409;28;20021;-68
2022/07/24 05:03:20;;;;;;;6.00;4.97;;;29.90;34.10;;;;;;5043804;28;20448;-68
2022/07/24 05:05:46;;;;;;;5.10;4.60;;;30.10;34.20;;;;;;5034437;28;20033;-68
2022/07/24 05:08:11;;;;;;;5.00;4.50;;;30.50;33.90;;;;;;5015839;28;20100;-66
2022/07/24 05:10:37;;;;;;;5.43;4.53;;;30.60;33.60;;;;;;5043666;28;20022;-67
2022/07/24 05:13:02;;;;;;;4.82;4.10;;;31.40;32.40;;;;;;5023379;28;20028;-67
2022/07/24 05:15:28;;;;;;;5.93;4.45;;;31.80;31.80;;;;;;5036511;28;20396;-67
2022/07/24 05:17:54;;;;;;;9.20;4.30;;;32.60;30.60;;;;;;5039687;28;20032;-66
2022/07/24 05:20:19;;;;;;;5.75;4.43;;;33.30;29.50;;;;;;5028253;28;20028;-67
2022/07/24 05:22:45;;;;;;;4.80;4.30;;;33.10;29.60;;;;;;5038797;28;20025;-67
2022/07/24 05:25:10;;;;;;;4.78;4.22;;;33.40;29.10;;;;;;5038827;28;20430;-67
2022/07/24 05:27:37;;;;;;;4.47;4.07;;;33.70;28.80;;;;;;5044868;28;20036;-66
2022/07/24 05:30:04;;;;;;;9.75;4.93;;;34.40;27.70;;;;;;5034110;28;20021;-67
2022/07/24 05:32:30;;;;;;;5.72;4.30;;;34.40;27.50;;;;;;5044485;28;20077;-67
2022/07/24 05:34:57;;;;;;;6.45;4.97;;;33.20;28.80;;;;;;5040203;28;20096;-68
2022/07/24 05:37:23;;;;;;;6.05;4.40;;;32.40;29.90;;;;;;5036213;28;20038;-67
2022/07/24 05:39:48;;;;;;;6.18;4.60;;;31.90;30.70;;;;;;5050526;28;20500;-67
2022/07/24 05:42:16;;;;;;;6.18;4.95;;;31.40;31.90;;;;;;5038307;28;20095;-67
2022/07/24 05:44:42;;;;;;;5.72;4.45;;;32.10;30.30;;;;;;5073807;22;20041;-68
2022/07/24 05:47:07;;;;;;;8.02;4.90;;;32.80;29.50;;;;;;5041910;28;20021;-68
2022/07/24 05:49:33;;;;;;;5.63;5.13;;;30.70;32.50;;;;;;5048706;28;20079;-68
2022/07/24 05:51:59;;;;;;;5.35;4.70;;;29.70;34.60;;;;;;5037163;28;20030;-68
2022/07/24 05:54:25;;;;;;;6.82;4.97;;;30.90;32.90;;;;;;5048706;28;20036;-68
2022/07/24 05:56:50;;;;;;;5.03;4.35;;;30.80;32.60;;;;;;5042858;28;20025;-68
2022/07/24 05:59:16;;;;;;;8.10;4.80;;;30.30;34.10;;;;;;5040290;28;20109;-68
2022/07/24 06:01:41;;;;;;;4.82;4.38;;;32.10;31.30;;;;;;5049840;28;20048;-67
2022/07/24 06:04:07;;;;;;;6.80;4.70;;;31.00;32.40;;;;;;5037150;28;20024;-69
2022/07/24 06:06:32;;;;;;;5.07;4.65;;;29.60;34.90;;;;;;5047260;28;20108;-70
2022/07/24 06:08:58;;;;;;;6.07;4.30;;;28.90;35.70;;;;;;5043124;28;20032;-67
2022/07/24 06:11:24;;;;;;;6.32;4.00;;;29.30;36.00;;;;;;5040192;28;20159;-68
2022/07/24 06:13:49;;;;;;;5.43;4.05;;;30.80;33.30;;;;;;5032077;28;20029;-68
2022/07/24 06:16:15;;;;;;;7.72;4.45;;;31.90;31.60;;;;;;5037922;28;20028;-68
2022/07/24 06:18:41;;;;;;;6.22;4.30;;;32.50;30.10;;;;;;5044728;28;20017;-67
2022/07/24 06:21:06;;;;;;;5.03;4.55;;;31.60;31.60;;;;;;5041965;28;20505;-68
2022/07/24 06:23:32;;;;;;;3.97;3.58;;;30.40;33.30;;;;;;5048168;28;20021;-67
2022/07/24 06:25:58;;;;;;;6.60;3.88;;;30.40;33.80;;;;;;5018979;28;20018;-67
2022/07/24 06:28:24;;;;;;;4.22;3.55;;;31.90;31.40;;;;;;5047338;28;20025;-67
2022/07/24 06:30:50;;;;;;;9.85;4.38;;;33.80;28.80;;;;;;5042327;28;20032;-67
2022/07/24 06:33:15;;;;;;;7.10;4.18;;;33.80;28.60;;;;;;5022897;28;20025;-67
2022/07/24 06:35:41;;;;;;;5.80;3.90;;;33.40;28.70;;;;;;5048724;28;20025;-67
2022/07/24 06:38:07;;;;;;;4.15;3.55;;;32.80;29.60;;;;;;5035960;28;20041;-68
2022/07/24 06:40:34;;;;;;;6.15;3.92;;;32.90;29.40;;;;;;5046634;28;20071;-68
2022/07/24 06:43:00;;;;;;;6.18;4.03;;;31.40;31.50;;;;;;5043439;28;20096;-68
2022/07/24 06:45:25;;;;;;;5.45;4.25;;;31.30;31.80;;;;;;5038930;28;20113;-68
2022/07/24 06:47:51;;;;;;;7.18;4.10;;;32.00;30.80;;;;;;5030818;28;20479;-68
2022/07/24 06:50:17;;;;;;;7.63;4.28;;;30.80;32.70;;;;;;5036738;28;20021;-69
2022/07/24 06:52:42;;;;;;;4.13;3.80;;;29.80;34.30;;;;;;5045449;28;20108;-69
2022/07/24 06:55:09;;;;;;;5.65;3.97;;;30.10;34.00;;;;;;5044091;28;20411;-68
2022/07/24 06:57:35;;;;;;;4.90;3.50;;;31.40;32.00;;;;;;5036964;28;20044;-69
2022/07/24 07:00:01;;;;;;;4.93;3.88;;;31.60;31.40;;;;;;5030868;28;20025;-68
2022/07/24 07:02:26;;;;;;;8.65;3.88;;;32.50;29.80;;;;;;5038255;28;20136;-69
2022/07/24 07:04:52;;;;;;;3.55;3.17;;;32.60;29.60;;;;;;5042966;28;20021;-68
2022/07/24 07:07:18;;;;;;;4.07;3.33;;;31.60;31.00;;;;;;5026486;28;20046;-69
2022/07/24 07:09:44;;;;;;;4.30;2.85;;;32.40;29.70;;;;;;5036186;28;20025;-69
2022/07/24 07:12:10;;;;;;;4.38;2.50;;;32.90;29.20;;;;;;5048921;28;20025;-69
2022/07/24 07:14:36;;;;;;;11.13;5.90;;;34.50;27.30;;;;;;5021174;28;20024;-69
2022/07/24 07:17:02;;;;;;;3.20;2.90;;;35.90;25.90;;;;;;5037337;28;20053;-69
2022/07/24 07:19:28;;;;;;;3.63;3.17;;;35.40;25.70;;;;;;5045362;28;20025;-69
2022/07/24 07:21:53;;;;;;;3.55;2.88;;;34.40;26.80;;;;;;5049545;28;20544;-69
2022/07/24 07:24:19;;;;;;;5.43;2.95;;;32.10;29.00;;;;;;5032868;28;20221;-69
2022/07/24 07:26:45;;;;;;;7.32;3.17;;;32.10;30.10;;;;;;5040350;28;20025;-70
2022/07/24 07:29:10;;;;;;;3.30;2.65;;;33.50;27.60;;;;;;5021674;28;20394;-70
2022/07/24 07:31:36;;;;;;;3.25;2.60;;;33.10;27.70;;;;;;5045831;28;20083;-74
2022/07/24 07:34:02;;;;;;;2.38;2.17;;;33.50;27.40;;;;;;5021446;28;20033;-70
2022/07/24 07:36:27;;;;;;;3.50;2.08;;;34.60;26.10;;;;;;5045966;28;20032;-72
2022/07/24 07:38:54;;;;;;;4.63;2.33;;;34.40;25.60;;;;;;5040218;28;20017;-73
2022/07/24 07:41:19;;;;;;;44.35;25.85;;;34.10;26.30;;;;;;5021472;28;20391;-73
2022/07/24 07:43:48;;;;;;;60.97;26.95;;;34.20;26.60;;;;;;5049356;28;20108;-72
2022/07/24 07:46:14;;;;;;;3.83;2.72;;;34.00;26.70;;;;;;5004732;28;20052;-73
2022/07/24 07:48:40;;;;;;;1.70;1.60;;;34.00;26.10;;;;;;5048096;28;20018;-73
2022/07/24 07:51:06;;;;;;;11.25;2.20;;;34.00;26.30;;;;;;5045153;28;20036;-71
2022/07/24 07:53:31;;;;;;;3.83;2.20;;;35.00;25.40;;;;;;5019787;28;20499;-69
2022/07/24 07:55:57;;;;;;;4.10;2.22;;;35.90;24.50;;;;;;5048389;28;20032;-69
2022/07/24 07:58:23;;;;;;;5.93;2.53;;;37.10;23.40;;;;;;5036271;28;20020;-69
2022/07/24 08:00:49;;;;;;;2.40;2.00;;;37.90;21.90;;;;;;5042629;28;20103;-70
2022/07/24 08:03:15;;;;;;;2.38;1.67;;;38.90;21.50;;;;;;5042856;28;20032;-70
2022/07/24 08:05:40;;;;;;;3.20;1.65;;;37.60;21.50;;;;;;5035468;28;20025;-70
2022/07/24 08:08:06;;;;;;;5.53;2.05;;;35.50;23.70;;;;;;5047195;28;20036;-69
2022/07/24 08:10:32;;;;;;;2.53;1.70;;;34.00;25.30;;;;;;5037535;28;20017;-69
2022/07/24 08:12:57;;;;;;;3.67;1.98;;;33.80;25.90;;;;;;5041634;28;20033;-69
2022/07/24 08:15:23;;;;;;;2.78;1.67;;;32.90;27.40;;;;;;5044388;28;20505;-69
2022/07/24 08:17:56;;;;;;;4.82;2.05;;;33.50;26.60;;;;;;5033791;28;20033;-70
2022/07/24 08:20:23;;;;;;;4.40;1.48;;;32.30;27.20;;;;;;5046353;28;20017;-69
2022/07/24 08:22:49;;;;;;;3.85;2.10;;;31.80;28.00;;;;;;5039993;28;20025;-69
2022/07/24 08:25:18;;;;;;;5.88;2.10;;;31.40;28.60;;;;;;5038796;28;20104;-71
2022/07/24 08:27:44;;;;;;;2.08;1.65;;;31.40;28.30;;;;;;5021002;28;20541;-70
2022/07/24 08:30:10;;;;;;;7.45;1.90;;;32.40;27.40;;;;;;5035664;28;20029;-69
2022/07/24 08:32:36;;;;;;;2.03;1.60;;;34.40;25.10;;;;;;5045849;28;20021;-70
2022/07/24 08:35:02;;;;;;;1.90;1.63;;;34.40;25.10;;;;;;5022457;28;20498;-67
2022/07/24 08:37:28;;;;;;;3.50;1.75;;;35.70;24.30;;;;;;5044336;28;20451;-74
2022/07/24 08:39:56;;;;;;;4.20;1.63;;;36.80;23.10;;;;;;5016926;28;20025;-73
2022/07/24 08:42:22;;;;;;;1.60;1.50;;;37.70;21.90;;;;;;5028606;28;20430;-74
2022/07/24 08:44:48;;;;;;;1.88;1.50;;;36.70;22.40;;;;;;5039141;28;20025;-71
2022/07/24 08:47:15;;;;;;;2.25;1.58;;;36.50;22.90;;;;;;5019739;28;20033;-74
2022/07/24 08:49:44;;;;;;;1.90;1.27;;;37.00;22.30;;;;;;5046908;28;20060;-73
2022/07/24 08:52:09;;;;;;;2.38;1.70;;;37.70;22.00;;;;;;5016558;28;20497;-72
2022/07/24 08:54:36;;;;;;;3.67;1.65;;;37.70;21.30;;;;;;5044093;28;20029;-73
2022/07/24 08:57:04;;;;;;;2.47;1.77;;;35.70;23.20;;;;;;5040724;28;20525;-77
2022/07/24 08:59:30;;;;;;;2.13;1.50;;;34.50;24.70;;;;;;5039538;28;20088;-73
2022/07/24 09:01:55;;;;;;;2.28;1.77;;;34.70;25.00;;;;;;5047818;28;20061;-74
2022/07/24 09:04:38;;;;;;;3.70;1.52;;;35.40;24.60;;;;;;5044851;28;20060;-73
2022/07/24 09:07:13;;;;;;;3.10;1.70;;;36.40;23.20;;;;;;5040544;28;20026;-75
2022/07/24 09:09:43;;;;;;;1.92;1.52;;;36.50;22.60;;;;;;5028077;28;20032;-74
2022/07/24 09:12:14;;;;;;;;;;;35.10;23.60;;;;;;5034098;28;20406;-74
2022/07/24 09:14:41;;;;;;;2.00;1.30;;;35.40;23.60;;;;;;5053793;28;20363;-71
2022/07/24 09:17:12;;;;;;;9.52;6.25;;;34.90;24.00;;;;;;5042395;28;20120;-72
2022/07/24 09:19:58;;;;;;;4.15;2.45;;;34.30;25.30;;;;;;5050008;28;20025;-74
2022/07/24 09:22:40;;;;;;;2.15;1.65;;;34.90;25.00;;;;;;5024978;28;20017;-73
2022/07/24 09:25:08;;;;;;;1.77;1.50;;;35.60;24.40;;;;;;5043619;28;20162;-75
2022/07/24 09:27:36;;;;;;;2.03;1.83;;;35.40;23.60;;;;;;5030990;28;20351;-67
2022/07/24 09:30:03;;;;;;;2.05;1.42;;;34.10;25.30;;;;;;5020317;28;20135;-67
2022/07/24 09:32:29;;;;;;;2.20;1.60;;;33.60;26.20;;;;;;5049318;28;20037;-67
2022/07/24 09:34:55;;;;;;;3.80;1.65;;;34.20;25.80;;;;;;5036778;28;20029;-69
2022/07/24 09:37:22;;;;;;;2.40;1.58;;;34.00;25.10;;;;;;5046761;28;20021;-74
2022/07/24 09:39:48;;;;;;;2.70;1.35;;;32.50;26.80;;;;;;5050925;28;20032;-71
2022/07/24 09:42:14;;;;;;;4.82;1.60;;;31.60;28.00;;;;;;5037975;28;20017;-74
2022/07/24 09:44:40;;;;;;;2.65;1.70;;;31.10;29.00;;;;;;5028555;28;20033;-71
2022/07/24 09:47:10;;;;;;;2.08;1.67;;;30.90;29.50;;;;;;5044086;28;20057;-72
2022/07/24 09:49:36;;;;;;;2.70;1.70;;;31.00;29.60;;;;;;5038635;28;20033;-74
2022/07/24 09:52:05;;;;;;;4.45;2.50;;;31.20;29.00;;;;;;5034608;28;20276;-71
2022/07/24 09:54:32;;;;;;;2.13;1.52;;;31.00;29.40;;;;;;5047772;28;20026;-73
2022/07/24 09:57:14;;;;;;;2.03;1.70;;;31.10;29.00;;;;;;5043313;28;20028;-71
2022/07/24 09:59:42;;;;;;;1.85;1.63;;;31.50;28.50;;;;;;5019893;28;20112;-73
2022/07/24 10:02:13;;;;;;;1.88;1.77;;;32.10;27.50;;;;;;5039668;28;20037;-74
2022/07/24 10:04:42;;;;;;;3.85;2.15;;;31.70;27.40;;;;;;5043236;28;20037;-72
2022/07/24 10:07:10;;;;;;;3.00;1.70;;;31.40;27.60;;;;;;5044047;28;20360;-71
2022/07/24 10:09:41;;;;;;;2.67;1.90;;;31.00;29.30;;;;;;5038014;28;20099;-72
2022/07/24 10:12:12;;;;;;;4.80;1.73;;;31.60;27.80;;;;;;5048414;28;20083;-72
2022/07/24 10:14:38;;;;;;;;;;;31.90;27.40;;;;;;5039354;28;20387;-71
2022/07/24 10:17:08;;;;;;;3.15;1.67;;;31.80;28.10;;;;;;5041085;28;19916;-70
2022/07/24 10:19:48;;;;;;;1.55;1.45;;;32.00;27.90;;;;;;5048753;28;20025;-73
2022/07/24 10:22:18;;;;;;;5.78;2.38;;;31.50;29.10;;;;;;5003797;28;20510;-71
2022/07/24 10:25:08;;;;;;;2.83;1.98;;;31.50;28.80;;;;;;5051294;28;20032;-68
2022/07/24 10:27:37;;;;;;;2.67;1.90;;;31.20;28.70;;;;;;5052012;28;20025;-69
2022/07/24 10:30:07;;;;;;;4.05;2.30;;;30.80;29.50;;;;;;5052092;28;20025;-68
2022/07/24 10:32:35;;;;;;;2.92;2.10;;;30.00;30.40;;;;;;5053158;28;20019;-68
2022/07/24 10:35:17;;;;;;;3.30;2.05;;;29.00;31.60;;;;;;5052482;28;20490;-68
2022/07/24 10:37:45;;;;;;;2.10;1.48;;;28.50;33.40;;;;;;5052363;28;20029;-67
2022/07/24 10:40:23;;;;;;;3.03;1.90;;;28.80;33.20;;;;;;5035427;28;20462;-68
2022/07/24 10:43:10;;;;;;;2.92;1.85;;;29.20;32.20;;;;;;5053103;28;20028;-67
2022/07/24 10:45:43;;;;;;;3.50;2.08;;;29.40;31.50;;;;;;5052841;28;20025;-68
2022/07/24 10:48:21;;;;;;;2.72;1.92;;;29.00;32.30;;;;;;5052611;28;20053;-67
2022/07/24 10:50:58;;;;;;;2.25;1.77;;;28.90;31.90;;;;;;5053228;28;20067;-68
2022/07/24 10:53:25;;;;;;;3.25;1.85;;;29.00;31.90;;;;;;5053411;28;20509;-67
2022/07/24 10:55:51;;;;;;;3.40;1.95;;;28.50;32.30;;;;;;5053126;28;20028;-68
2022/07/24 10:58:19;;;;;;;3.65;1.98;;;27.70;33.70;;;;;;5043364;28;20480;-68
2022/07/24 11:00:46;;;;;;;3.38;1.80;;;27.40;34.20;;;;;;5014674;28;20025;-68
2022/07/24 11:03:21;;;;;;;2.63;1.83;;;27.40;34.70;;;;;;5032872;28;20434;-68
2022/07/24 11:06:10;;;;;;;3.30;1.77;;;27.50;34.70;;;;;;5032637;28;20022;-68
2022/07/24 11:08:45;;;;;;;3.63;2.30;;;27.20;35.20;;;;;;4994464;28;20025;-68
2022/07/24 11:11:13;;;;;;;5.53;2.42;;;27.50;34.40;;;;;;5012987;28;20436;-68
2022/07/24 11:13:41;;;;;;;6.75;2.17;;;28.00;34.20;;;;;;5012610;28;20026;-70
2022/07/24 11:16:15;;;;;;;3.25;2.00;;;28.10;33.60;;;;;;5026864;28;20025;-67
2022/07/24 11:18:47;;;;;;;1.70;1.55;;;27.90;33.10;;;;;;5031549;28;20022;-67
2022/07/24 11:21:26;;;;;;;1.88;1.63;;;27.30;34.20;;;;;;5014426;28;20017;-66
2022/07/24 11:24:14;;;;;;;2.28;1.92;;;27.60;34.70;;;;;;5032275;28;20024;-68
2022/07/24 11:26:40;;;;;;;2.67;1.90;;;28.20;33.70;;;;;;5032079;28;20032;-68
2022/07/24 11:29:30;;;;;;;2.67;1.90;;;28.60;32.90;;;;;;5031378;28;20022;-68
2022/07/24 11:32:07;;;;;;;2.50;2.22;;;28.80;31.80;;;;;;5032134;28;20451;-67
2022/07/24 11:34:35;;;;;;;5.38;2.30;;;29.00;31.60;;;;;;5031983;28;20792;-68
2022/07/24 11:37:02;;;;;;;2.35;2.15;;;29.20;30.90;;;;;;5031358;28;20458;-67
2022/07/24 11:39:33;;;;;;;2.65;2.10;;;29.20;31.20;;;;;;5030969;28;20035;-67
2022/07/24 11:42:01;;;;;;;2.70;1.87;;;29.30;31.10;;;;;;5032028;28;20021;-67
2022/07/24 11:44:32;;;;;;;7.13;2.55;;;29.20;30.90;;;;;;5054265;22;20075;-69
2022/07/24 11:47:00;;;;;;;2.97;2.40;;;29.10;31.30;;;;;;5031058;28;20033;-68
2022/07/24 11:49:27;;;;;;;3.33;2.35;;;29.00;31.10;;;;;;5032086;28;20029;-68
2022/07/24 11:51:54;;;;;;;3.75;2.50;;;29.00;30.80;;;;;;5032458;28;20452;-69
2022/07/24 11:54:26;;;;;;;3.60;2.22;;;28.90;31.60;;;;;;5032307;28;20059;-66
2022/07/24 11:56:54;;;;;;;1.92;1.83;;;28.90;32.00;;;;;;5014505;28;20033;-67
2022/07/24 11:59:31;;;;;;;2.35;2.13;;;29.00;31.70;;;;;;5031763;28;20118;-68
2022/07/24 12:02:06;;;;;;;4.90;2.00;;;29.00;30.90;;;;;;5032320;28;20021;-68
2022/07/24 12:04:31;;;;;;;4.53;1.83;;;29.10;31.40;;;;;;5030988;28;20052;-69
2022/07/24 12:06:57;;;;;;;3.00;2.10;;;29.10;31.50;;;;;;5032187;28;20064;-67
2022/07/24 12:09:23;;;;;;;4.25;2.28;;;28.80;31.60;;;;;;5031270;28;20026;-68
2022/07/24 12:11:48;;;;;;;3.47;2.25;;;28.10;31.90;;;;;;5031598;28;20487;-68
2022/07/24 12:14:16;;;;;;;3.20;2.28;;;28.00;33.00;;;;;;5013727;28;20036;-68
2022/07/24 12:16:43;;;;;;;3.30;2.10;;;28.30;31.40;;;;;;5031567;28;20018;-68
2022/07/24 12:19:28;;;;;;;4.05;2.20;;;28.40;31.10;;;;;;5030841;28;20038;-69
2022/07/24 12:21:54;;;;;;;4.13;1.95;;;28.70;31.80;;;;;;5031580;28;20021;-69
2022/07/24 12:24:21;;;;;;;4.97;2.13;;;28.70;31.30;;;;;;5013701;28;20026;-68
2022/07/24 12:26:59;;;;;;;2.15;1.95;;;28.80;30.90;;;;;;5031494;28;20030;-69
2022/07/24 12:29:27;;;;;;;4.43;2.40;;;28.90;30.90;;;;;;5031174;28;20029;-68
2022/07/24 12:32:12;;;;;;;6.40;1.90;;;28.70;30.60;;;;;;5013471;28;20112;-68
2022/07/24 12:34:47;;;;;;;6.10;1.88;;;28.10;31.40;;;;;;5031324;28;20025;-68
2022/07/24 12:37:20;;;;;;;2.20;2.00;;;28.00;31.80;;;;;;5030722;28;20032;-68
2022/07/24 12:39:51;;;;;;;2.22;1.80;;;28.00;31.80;;;;;;5031526;28;20155;-68
2022/07/24 12:42:17;;;;;;;4.03;1.95;;;28.10;31.90;;;;;;5031171;28;20041;-67
2022/07/24 12:44:44;;;;;;;2.70;2.30;;;28.40;31.50;;;;;;5031746;28;20092;-67